Campbell River, Canada
Current Conditions -  °F | °C
As of 5:22 PM on Sunday 21 Dec 2014 (Local Time) from CYBL Reporting Station
Rain Showers Rain Showers  
Wind Chill: 43°   Ceiling: 600
Heat Index: 43°   Visibility: 6mi
Dew Point: 41°   Wind: 3mph
Humidity: 93%   Direction: 310°NW
Pressure: 29.95"   Gusts: NA
Location:  50.02°N, 125.25°W
Report Text: CYBL 220122Z 31003KT 230V340 6SM -SHRA BR FEW002 BKN006 OVC120 06/05 A2995 RMK SF2ST4AC2 SLP144
Loading
Personal Weather Stations






























Interactive Weather Map New forecast layout! Learn more

10-Day Weather Forecast

Advertisements
Track Severe Weather on mobile